sensor_id;sensor_type;location;lat;lon;timestamp;P1;durP1;ratioP1;P2;durP2;ratioP2
5006;SDS011;2522;50.972;11.046;2022-10-13T03:31:01;26.90;;;8.47;;
5006;SDS011;2522;50.972;11.046;2022-10-13T03:33:30;18.03;;;9.57;;
5006;SDS011;2522;50.972;11.046;2022-10-13T03:35:57;18.60;;;9.27;;
5006;SDS011;2522;50.972;11.046;2022-10-13T03:38:25;27.93;;;9.60;;
5006;SDS011;2522;50.972;11.046;2022-10-13T03:40:53;21.87;;;7.77;;
5006;SDS011;2522;50.972;11.046;2022-10-13T03:43:19;21.00;;;8.87;;
5006;SDS011;2522;50.972;11.046;2022-10-13T03:45:53;21.60;;;8.80;;
5006;SDS011;2522;50.972;11.046;2022-10-13T03:48:22;19.23;;;8.67;;
5006;SDS011;2522;50.972;11.046;2022-10-13T03:50:49;20.67;;;8.77;;
5006;SDS011;2522;50.972;11.046;2022-10-13T03:53:16;16.50;;;7.77;;
5006;SDS011;2522;50.972;11.046;2022-10-13T03:55:47;16.87;;;8.40;;
5006;SDS011;2522;50.972;11.046;2022-10-13T03:58:14;26.23;;;10.70;;
5006;SDS011;2522;50.972;11.046;2022-10-13T04:00:41;19.07;;;9.20;;
5006;SDS011;2522;50.972;11.046;2022-10-13T04:03:09;17.43;;;9.17;;
5006;SDS011;2522;50.972;11.046;2022-10-13T04:05:37;16.93;;;8.40;;
5006;SDS011;2522;50.972;11.046;2022-10-13T04:08:04;24.10;;;10.77;;
5006;SDS011;2522;50.972;11.046;2022-10-13T04:10:32;21.27;;;9.10;;
5006;SDS011;2522;50.972;11.046;2022-10-13T04:12:59;17.20;;;10.03;;
5006;SDS011;2522;50.972;11.046;2022-10-13T04:15:26;19.00;;;9.53;;
5006;SDS011;2522;50.972;11.046;2022-10-13T04:17:53;20.37;;;10.70;;
5006;SDS011;2522;50.972;11.046;2022-10-13T04:20:19;16.07;;;9.50;;
5006;SDS011;2522;50.972;11.046;2022-10-13T04:22:52;20.17;;;10.17;;
5006;SDS011;2522;50.972;11.046;2022-10-13T04:25:25;23.20;;;9.67;;
5006;SDS011;2522;50.972;11.046;2022-10-13T04:27:52;16.13;;;9.30;;
5006;SDS011;2522;50.972;11.046;2022-10-13T04:30:19;17.60;;;8.60;;
5006;SDS011;2522;50.972;11.046;2022-10-13T04:32:46;24.10;;;10.60;;
5006;SDS011;2522;50.972;11.046;2022-10-13T04:35:13;20.47;;;9.37;;
5006;SDS011;2522;50.972;11.046;2022-10-13T04:37:40;18.23;;;9.30;;
5006;SDS011;2522;50.972;11.046;2022-10-13T04:40:09;20.83;;;10.50;;
5006;SDS011;2522;50.972;11.046;2022-10-13T04:42:36;18.30;;;9.17;;
5006;SDS011;2522;50.972;11.046;2022-10-13T04:45:03;27.60;;;9.97;;
5006;SDS011;2522;50.972;11.046;2022-10-13T04:47:32;25.93;;;10.40;;
5006;SDS011;2522;50.972;11.046;2022-10-13T04:50:00;18.10;;;9.63;;
5006;SDS011;2522;50.972;11.046;2022-10-13T04:52:27;15.10;;;8.80;;
5006;SDS011;2522;50.972;11.046;2022-10-13T04:54:54;21.77;;;10.07;;
5006;SDS011;2522;50.972;11.046;2022-10-13T04:57:22;23.20;;;10.13;;
5006;SDS011;2522;50.972;11.046;2022-10-13T04:59:49;22.13;;;9.60;;
5006;SDS011;2522;50.972;11.046;2022-10-13T05:02:16;20.20;;;9.47;;
5006;SDS011;2522;50.972;11.046;2022-10-13T05:04:43;26.37;;;10.90;;
5006;SDS011;2522;50.972;11.046;2022-10-13T05:07:10;20.47;;;9.90;;
5006;SDS011;2522;50.972;11.046;2022-10-13T05:09:37;21.93;;;9.13;;
5006;SDS011;2522;50.972;11.046;2022-10-13T05:12:04;25.90;;;10.77;;
5006;SDS011;2522;50.972;11.046;2022-10-13T05:14:33;23.50;;;11.20;;
5006;SDS011;2522;50.972;11.046;2022-10-13T05:17:00;26.53;;;10.80;;
5006;SDS011;2522;50.972;11.046;2022-10-13T05:19:27;21.77;;;10.70;;
5006;SDS011;2522;50.972;11.046;2022-10-13T05:21:54;22.00;;;9.53;;
5006;SDS011;2522;50.972;11.046;2022-10-13T05:24:21;29.43;;;10.23;;
5006;SDS011;2522;50.972;11.046;2022-10-13T05:26:55;21.73;;;9.90;;
5006;SDS011;2522;50.972;11.046;2022-10-13T05:29:22;31.23;;;10.70;;
5006;SDS011;2522;50.972;11.046;2022-10-13T05:31:50;21.93;;;11.20;;
5006;SDS011;2522;50.972;11.046;2022-10-13T05:34:17;20.07;;;10.17;;
5006;SDS011;2522;50.972;11.046;2022-10-13T05:36:44;25.00;;;10.90;;
5006;SDS011;2522;50.972;11.046;2022-10-13T05:39:11;25.70;;;9.03;;
5006;SDS011;2522;50.972;11.046;2022-10-13T05:41:38;28.03;;;10.10;;
5006;SDS011;2522;50.972;11.046;2022-10-13T05:44:07;23.73;;;11.07;;
5006;SDS011;2522;50.972;11.046;2022-10-13T05:46:34;22.27;;;10.17;;
5006;SDS011;2522;50.972;11.046;2022-10-13T05:49:03;20.63;;;10.20;;
5006;SDS011;2522;50.972;11.046;2022-10-13T05:51:31;20.33;;;10.43;;
5006;SDS011;2522;50.972;11.046;2022-10-13T05:54:01;28.53;;;11.73;;
5006;SDS011;2522;50.972;11.046;2022-10-13T05:56:32;22.27;;;11.03;;
5006;SDS011;2522;50.972;11.046;2022-10-13T05:59:03;30.03;;;11.87;;
5006;SDS011;2522;50.972;11.046;2022-10-13T06:01:34;21.77;;;10.40;;
5006;SDS011;2522;50.972;11.046;2022-10-13T06:04:05;23.97;;;10.53;;
5006;SDS011;2522;50.972;11.046;2022-10-13T06:06:37;28.43;;;10.03;;
5006;SDS011;2522;50.972;11.046;2022-10-13T06:09:04;27.67;;;11.17;;
5006;SDS011;2522;50.972;11.046;2022-10-13T06:11:31;28.20;;;10.37;;
5006;SDS011;2522;50.972;11.046;2022-10-13T06:13:58;22.83;;;10.20;;
5006;SDS011;2522;50.972;11.046;2022-10-13T06:16:25;26.97;;;11.40;;
5006;SDS011;2522;50.972;11.046;2022-10-13T06:18:52;25.40;;;11.80;;
5006;SDS011;2522;50.972;11.046;2022-10-13T06:21:21;26.60;;;11.53;;
5006;SDS011;2522;50.972;11.046;2022-10-13T06:23:48;29.10;;;11.97;;
5006;SDS011;2522;50.972;11.046;2022-10-13T06:26:15;35.80;;;12.57;;
5006;SDS011;2522;50.972;11.046;2022-10-13T06:28:42;26.23;;;12.73;;
5006;SDS011;2522;50.972;11.046;2022-10-13T06:31:08;29.67;;;12.57;;
5006;SDS011;2522;50.972;11.046;2022-10-13T06:33:36;27.37;;;10.60;;
5006;SDS011;2522;50.972;11.046;2022-10-13T06:36:03;27.00;;;12.70;;
5006;SDS011;2522;50.972;11.046;2022-10-13T06:38:32;31.80;;;12.27;;
5006;SDS011;2522;50.972;11.046;2022-10-13T06:40:59;28.40;;;13.40;;
5006;SDS011;2522;50.972;11.046;2022-10-13T06:43:27;23.90;;;13.00;;
5006;SDS011;2522;50.972;11.046;2022-10-13T06:45:56;25.67;;;11.97;;
5006;SDS011;2522;50.972;11.046;2022-10-13T06:48:23;45.93;;;12.33;;
5006;SDS011;2522;50.972;11.046;2022-10-13T06:50:51;22.17;;;12.03;;
5006;SDS011;2522;50.972;11.046;2022-10-13T06:53:18;23.90;;;12.13;;
5006;SDS011;2522;50.972;11.046;2022-10-13T06:55:46;19.23;;;9.70;;
5006;SDS011;2522;50.972;11.046;2022-10-13T06:58:13;34.77;;;11.73;;
5006;SDS011;2522;50.972;11.046;2022-10-13T07:00:40;26.60;;;11.40;;
5006;SDS011;2522;50.972;11.046;2022-10-13T07:03:09;25.50;;;11.13;;
5006;SDS011;2522;50.972;11.046;2022-10-13T07:05:36;26.90;;;11.47;;
5006;SDS011;2522;50.972;11.046;2022-10-13T07:08:03;22.50;;;10.33;;
5006;SDS011;2522;50.972;11.046;2022-10-13T07:10:30;28.67;;;11.60;;
5006;SDS011;2522;50.972;11.046;2022-10-13T07:12:58;29.20;;;12.67;;
5006;SDS011;2522;50.972;11.046;2022-10-13T07:15:25;20.27;;;10.60;;
5006;SDS011;2522;50.972;11.046;2022-10-13T07:17:52;30.37;;;11.57;;
5006;SDS011;2522;50.972;11.046;2022-10-13T07:20:19;23.20;;;12.80;;
5006;SDS011;2522;50.972;11.046;2022-10-13T07:22:46;29.27;;;11.20;;
5006;SDS011;2522;50.972;11.046;2022-10-13T07:25:13;30.90;;;11.57;;
5006;SDS011;2522;50.972;11.046;2022-10-13T07:27:40;29.30;;;12.23;;
5006;SDS011;2522;50.972;11.046;2022-10-13T07:30:20;43.37;;;12.47;;
5006;SDS011;2522;50.972;11.046;2022-10-13T07:32:47;22.43;;;10.47;;
5006;SDS011;2522;50.972;11.046;2022-10-13T07:35:15;29.47;;;11.83;;
5006;SDS011;2522;50.972;11.046;2022-10-13T07:37:42;26.57;;;12.67;;
5006;SDS011;2522;50.972;11.046;2022-10-13T07:40:09;27.80;;;11.67;;
5006;SDS011;2522;50.972;11.046;2022-10-13T07:42:36;23.40;;;11.83;;
5006;SDS011;2522;50.972;11.046;2022-10-13T07:45:04;28.87;;;11.17;;
5006;SDS011;2522;50.972;11.046;2022-10-13T07:47:33;19.70;;;10.83;;
5006;SDS011;2522;50.972;11.046;2022-10-13T07:50:00;18.30;;;10.50;;
5006;SDS011;2522;50.972;11.046;2022-10-13T07:52:26;23.43;;;11.80;;
5006;SDS011;2522;50.972;11.046;2022-10-13T07:54:53;22.83;;;10.17;;
5006;SDS011;2522;50.972;11.046;2022-10-13T07:57:20;30.10;;;12.60;;
5006;SDS011;2522;50.972;11.046;2022-10-13T07:59:52;31.13;;;12.20;;
5006;SDS011;2522;50.972;11.046;2022-10-13T08:02:19;20.60;;;11.37;;
5006;SDS011;2522;50.972;11.046;2022-10-13T08:04:47;30.93;;;12.90;;
5006;SDS011;2522;50.972;11.046;2022-10-13T08:07:14;29.30;;;12.80;;
5006;SDS011;2522;50.972;11.046;2022-10-13T08:09:42;27.70;;;11.90;;
5006;SDS011;2522;50.972;11.046;2022-10-13T08:12:09;34.00;;;12.07;;
5006;SDS011;2522;50.972;11.046;2022-10-13T08:14:36;25.00;;;11.87;;
5006;SDS011;2522;50.972;11.046;2022-10-13T08:17:03;28.37;;;13.20;;
5006;SDS011;2522;50.972;11.046;2022-10-13T08:19:30;22.90;;;11.77;;
5006;SDS011;2522;50.972;11.046;2022-10-13T08:21:58;29.27;;;12.77;;
5006;SDS011;2522;50.972;11.046;2022-10-13T08:24:25;25.97;;;12.60;;
5006;SDS011;2522;50.972;11.046;2022-10-13T08:26:53;22.33;;;11.20;;
5006;SDS011;2522;50.972;11.046;2022-10-13T08:29:20;23.50;;;11.90;;
5006;SDS011;2522;50.972;11.046;2022-10-13T08:31:47;27.90;;;11.73;;
5006;SDS011;2522;50.972;11.046;2022-10-13T08:34:14;19.73;;;11.00;;
5006;SDS011;2522;50.972;11.046;2022-10-13T08:36:41;23.13;;;12.90;;
5006;SDS011;2522;50.972;11.046;2022-10-13T08:39:10;23.50;;;10.13;;
5006;SDS011;2522;50.972;11.046;2022-10-13T08:41:38;26.90;;;11.77;;
5006;SDS011;2522;50.972;11.046;2022-10-13T08:44:09;26.07;;;11.20;;
5006;SDS011;2522;50.972;11.046;2022-10-13T08:46:45;27.90;;;12.10;;
5006;SDS011;2522;50.972;11.046;2022-10-13T08:49:18;23.60;;;10.90;;
5006;SDS011;2522;50.972;11.046;2022-10-13T08:51:45;25.03;;;11.27;;
5006;SDS011;2522;50.972;11.046;2022-10-13T08:54:14;25.27;;;11.60;;
5006;SDS011;2522;50.972;11.046;2022-10-13T08:56:44;25.80;;;11.60;;
5006;SDS011;2522;50.972;11.046;2022-10-13T08:59:14;28.23;;;11.60;;
5006;SDS011;2522;50.972;11.046;2022-10-13T09:01:43;27.93;;;12.20;;
5006;SDS011;2522;50.972;11.046;2022-10-13T09:04:16;27.23;;;12.90;;
5006;SDS011;2522;50.972;11.046;2022-10-13T09:06:53;31.20;;;13.10;;
5006;SDS011;2522;50.972;11.046;2022-10-13T09:09:25;24.90;;;11.53;;
5006;SDS011;2522;50.972;11.046;2022-10-13T09:11:51;26.30;;;12.97;;
5006;SDS011;2522;50.972;11.046;2022-10-13T09:14:19;34.97;;;12.63;;
5006;SDS011;2522;50.972;11.046;2022-10-13T09:16:49;26.70;;;11.30;;
5006;SDS011;2522;50.972;11.046;2022-10-13T09:19:21;28.17;;;12.60;;
5006;SDS011;2522;50.972;11.046;2022-10-13T09:21:52;28.23;;;12.40;;
5006;SDS011;2522;50.972;11.046;2022-10-13T09:24:21;28.53;;;12.80;;
5006;SDS011;2522;50.972;11.046;2022-10-13T09:27:00;28.17;;;11.23;;
5006;SDS011;2522;50.972;11.046;2022-10-13T09:29:29;26.53;;;12.90;;
5006;SDS011;2522;50.972;11.046;2022-10-13T09:32:06;26.93;;;12.47;;
5006;SDS011;2522;50.972;11.046;2022-10-13T09:34:39;28.40;;;12.13;;
5006;SDS011;2522;50.972;11.046;2022-10-13T09:37:15;23.33;;;11.43;;
5006;SDS011;2522;50.972;11.046;2022-10-13T09:39:44;28.47;;;11.37;;
5006;SDS011;2522;50.972;11.046;2022-10-13T09:42:22;26.13;;;12.10;;
5006;SDS011;2522;50.972;11.046;2022-10-13T09:44:55;25.27;;;11.57;;
5006;SDS011;2522;50.972;11.046;2022-10-13T09:47:24;24.03;;;11.90;;
5006;SDS011;2522;50.972;11.046;2022-10-13T09:49:58;27.73;;;12.40;;
5006;SDS011;2522;50.972;11.046;2022-10-13T09:52:39;26.87;;;11.80;;
5006;SDS011;2522;50.972;11.046;2022-10-13T09:55:20;22.20;;;12.30;;
5006;SDS011;2522;50.972;11.046;2022-10-13T09:57:54;27.30;;;11.20;;
5006;SDS011;2522;50.972;11.046;2022-10-13T10:00:26;21.20;;;9.50;;
5006;SDS011;2522;50.972;11.046;2022-10-13T10:02:54;22.10;;;8.77;;
5006;SDS011;2522;50.972;11.046;2022-10-13T10:05:26;20.57;;;8.90;;
5006;SDS011;2522;50.972;11.046;2022-10-13T10:10:29;17.50;;;8.47;;
5006;SDS011;2522;50.972;11.046;2022-10-13T10:13:00;22.53;;;9.47;;
5006;SDS011;2522;50.972;11.046;2022-10-13T10:15:30;17.90;;;8.77;;
5006;SDS011;2522;50.972;11.046;2022-10-13T10:18:10;21.97;;;9.30;;
5006;SDS011;2522;50.972;11.046;2022-10-13T10:20:49;19.10;;;8.30;;
5006;SDS011;2522;50.972;11.046;2022-10-13T10:23:28;16.30;;;9.70;;
5006;SDS011;2522;50.972;11.046;2022-10-13T10:26:04;19.30;;;9.30;;
5006;SDS011;2522;50.972;11.046;2022-10-13T10:28:42;20.37;;;8.53;;
5006;SDS011;2522;50.972;11.046;2022-10-13T10:34:24;23.73;;;11.90;;
5006;SDS011;2522;50.972;11.046;2022-10-13T10:36:56;19.07;;;9.40;;
5006;SDS011;2522;50.972;11.046;2022-10-13T10:39:40;20.87;;;9.80;;
5006;SDS011;2522;50.972;11.046;2022-10-13T10:42:17;26.83;;;10.63;;
5006;SDS011;2522;50.972;11.046;2022-10-13T10:44:53;22.37;;;9.93;;
5006;SDS011;2522;50.972;11.046;2022-10-13T10:47:23;16.70;;;10.00;;
5006;SDS011;2522;50.972;11.046;2022-10-13T10:49:53;14.80;;;8.90;;
5006;SDS011;2522;50.972;11.046;2022-10-13T10:52:28;16.47;;;8.30;;
5006;SDS011;2522;50.972;11.046;2022-10-13T10:55:14;16.77;;;8.57;;
5006;SDS011;2522;50.972;11.046;2022-10-13T10:57:49;41.00;;;8.50;;
5006;SDS011;2522;50.972;11.046;2022-10-13T11:00:23;20.70;;;9.23;;
5006;SDS011;2522;50.972;11.046;2022-10-13T11:02:52;19.50;;;8.20;;
5006;SDS011;2522;50.972;11.046;2022-10-13T11:05:30;17.60;;;7.77;;
5006;SDS011;2522;50.972;11.046;2022-10-13T11:08:28;24.40;;;9.83;;
5006;SDS011;2522;50.972;11.046;2022-10-13T11:14:20;16.80;;;8.07;;
5006;SDS011;2522;50.972;11.046;2022-10-13T11:17:19;17.60;;;7.80;;
5006;SDS011;2522;50.972;11.046;2022-10-13T11:19:53;17.30;;;8.10;;
5006;SDS011;2522;50.972;11.046;2022-10-13T11:22:21;14.60;;;6.80;;
5006;SDS011;2522;50.972;11.046;2022-10-13T11:24:53;12.13;;;6.50;;
5006;SDS011;2522;50.972;11.046;2022-10-13T11:27:26;13.20;;;6.23;;
5006;SDS011;2522;50.972;11.046;2022-10-13T11:30:03;11.07;;;5.47;;
5006;SDS011;2522;50.972;11.046;2022-10-13T11:32:45;11.73;;;5.87;;
5006;SDS011;2522;50.972;11.046;2022-10-13T11:35:25;9.00;;;5.30;;
5006;SDS011;2522;50.972;11.046;2022-10-13T11:37:57;20.13;;;5.10;;
5006;SDS011;2522;50.972;11.046;2022-10-13T11:40:44;10.30;;;4.90;;
5006;SDS011;2522;50.972;11.046;2022-10-13T11:43:28;12.60;;;5.07;;
5006;SDS011;2522;50.972;11.046;2022-10-13T11:46:08;7.03;;;3.60;;
5006;SDS011;2522;50.972;11.046;2022-10-13T11:51:49;8.20;;;3.47;;
5006;SDS011;2522;50.972;11.046;2022-10-13T11:54:38;5.47;;;3.60;;
5006;SDS011;2522;50.972;11.046;2022-10-13T11:57:16;6.53;;;3.20;;
5006;SDS011;2522;50.972;11.046;2022-10-13T11:59:45;8.23;;;3.90;;
5006;SDS011;2522;50.972;11.046;2022-10-13T12:02:14;6.00;;;3.43;;
5006;SDS011;2522;50.972;11.046;2022-10-13T12:04:42;8.27;;;3.20;;
5006;SDS011;2522;50.972;11.046;2022-10-13T12:07:13;8.50;;;3.40;;
5006;SDS011;2522;50.972;11.046;2022-10-13T12:09:47;6.10;;;3.10;;
5006;SDS011;2522;50.972;11.046;2022-10-13T12:12:17;6.90;;;3.57;;
5006;SDS011;2522;50.972;11.046;2022-10-13T12:14:46;13.93;;;3.40;;
5006;SDS011;2522;50.972;11.046;2022-10-13T12:17:19;14.83;;;3.30;;
5006;SDS011;2522;50.972;11.046;2022-10-13T12:19:48;9.23;;;3.20;;
5006;SDS011;2522;50.972;11.046;2022-10-13T12:22:17;8.20;;;3.53;;
5006;SDS011;2522;50.972;11.046;2022-10-13T12:24:55;5.77;;;3.20;;
5006;SDS011;2522;50.972;11.046;2022-10-13T12:27:23;7.47;;;3.37;;
5006;SDS011;2522;50.972;11.046;2022-10-13T12:29:50;6.37;;;2.63;;
5006;SDS011;2522;50.972;11.046;2022-10-13T12:32:18;8.43;;;2.77;;
5006;SDS011;2522;50.972;11.046;2022-10-13T12:34:47;9.40;;;3.33;;
5006;SDS011;2522;50.972;11.046;2022-10-13T12:37:20;5.70;;;3.10;;
5006;SDS011;2522;50.972;11.046;2022-10-13T12:39:52;7.07;;;3.10;;
5006;SDS011;2522;50.972;11.046;2022-10-13T12:42:21;8.30;;;3.87;;
5006;SDS011;2522;50.972;11.046;2022-10-13T12:44:51;8.47;;;3.50;;
5006;SDS011;2522;50.972;11.046;2022-10-13T12:47:35;9.13;;;3.73;;
5006;SDS011;2522;50.972;11.046;2022-10-13T12:50:30;9.07;;;3.60;;
5006;SDS011;2522;50.972;11.046;2022-10-13T12:53:10;13.63;;;3.47;;
5006;SDS011;2522;50.972;11.046;2022-10-13T12:55:49;12.53;;;4.63;;
5006;SDS011;2522;50.972;11.046;2022-10-13T12:58:21;12.57;;;4.63;;
5006;SDS011;2522;50.972;11.046;2022-10-13T13:00:56;8.30;;;4.17;;
5006;SDS011;2522;50.972;11.046;2022-10-13T13:03:29;5.73;;;3.30;;
5006;SDS011;2522;50.972;11.046;2022-10-13T13:06:06;10.73;;;3.97;;
5006;SDS011;2522;50.972;11.046;2022-10-13T13:09:04;8.50;;;4.20;;
5006;SDS011;2522;50.972;11.046;2022-10-13T13:11:45;6.67;;;3.70;;
5006;SDS011;2522;50.972;11.046;2022-10-13T13:14:31;7.00;;;3.20;;
5006;SDS011;2522;50.972;11.046;2022-10-13T13:17:02;8.00;;;4.10;;
5006;SDS011;2522;50.972;11.046;2022-10-13T13:19:30;7.30;;;3.50;;
5006;SDS011;2522;50.972;11.046;2022-10-13T13:21:57;6.47;;;3.77;;
5006;SDS011;2522;50.972;11.046;2022-10-13T13:24:26;9.37;;;3.67;;
5006;SDS011;2522;50.972;11.046;2022-10-13T13:26:52;7.90;;;3.47;;
5006;SDS011;2522;50.972;11.046;2022-10-13T13:29:19;9.03;;;3.40;;
5006;SDS011;2522;50.972;11.046;2022-10-13T13:31:46;9.37;;;3.70;;
5006;SDS011;2522;50.972;11.046;2022-10-13T13:34:13;6.07;;;3.60;;
5006;SDS011;2522;50.972;11.046;2022-10-13T13:36:40;9.57;;;3.27;;
5006;SDS011;2522;50.972;11.046;2022-10-13T13:39:10;9.40;;;3.80;;
5006;SDS011;2522;50.972;11.046;2022-10-13T13:41:43;8.20;;;3.80;;
5006;SDS011;2522;50.972;11.046;2022-10-13T13:44:11;5.47;;;3.73;;
5006;SDS011;2522;50.972;11.046;2022-10-13T13:46:38;6.83;;;3.63;;
5006;SDS011;2522;50.972;11.046;2022-10-13T13:49:06;10.40;;;3.87;;
5006;SDS011;2522;50.972;11.046;2022-10-13T13:51:34;7.83;;;3.27;;
5006;SDS011;2522;50.972;11.046;2022-10-13T13:54:01;9.17;;;3.67;;
5006;SDS011;2522;50.972;11.046;2022-10-13T13:56:28;7.87;;;3.53;;
5006;SDS011;2522;50.972;11.046;2022-10-13T13:58:56;9.13;;;3.50;;
5006;SDS011;2522;50.972;11.046;2022-10-13T14:01:23;8.40;;;4.00;;
5006;SDS011;2522;50.972;11.046;2022-10-13T14:03:50;9.73;;;4.00;;
5006;SDS011;2522;50.972;11.046;2022-10-13T14:06:17;14.83;;;4.27;;
5006;SDS011;2522;50.972;11.046;2022-10-13T14:08:47;17.27;;;4.57;;
5006;SDS011;2522;50.972;11.046;2022-10-13T14:11:14;11.60;;;3.97;;
5006;SDS011;2522;50.972;11.046;2022-10-13T14:13:40;5.33;;;3.33;;
5006;SDS011;2522;50.972;11.046;2022-10-13T14:16:10;7.90;;;3.47;;
5006;SDS011;2522;50.972;11.046;2022-10-13T14:18:41;9.17;;;4.17;;
5006;SDS011;2522;50.972;11.046;2022-10-13T14:21:08;7.60;;;3.77;;
5006;SDS011;2522;50.972;11.046;2022-10-13T14:23:35;13.73;;;4.60;;
5006;SDS011;2522;50.972;11.046;2022-10-13T14:26:05;8.23;;;4.10;;
5006;SDS011;2522;50.972;11.046;2022-10-13T14:28:33;15.43;;;5.00;;
5006;SDS011;2522;50.972;11.046;2022-10-13T14:31:03;12.70;;;5.00;;
5006;SDS011;2522;50.972;11.046;2022-10-13T14:33:32;10.57;;;4.50;;
5006;SDS011;2522;50.972;11.046;2022-10-13T14:35:59;13.93;;;5.50;;
5006;SDS011;2522;50.972;11.046;2022-10-13T14:38:26;18.83;;;6.03;;
5006;SDS011;2522;50.972;11.046;2022-10-13T14:40:56;9.17;;;5.47;;
5006;SDS011;2522;50.972;11.046;2022-10-13T14:43:24;13.80;;;6.03;;
5006;SDS011;2522;50.972;11.046;2022-10-13T14:45:52;11.90;;;6.00;;
5006;SDS011;2522;50.972;11.046;2022-10-13T14:48:19;9.77;;;4.80;;
5006;SDS011;2522;50.972;11.046;2022-10-13T14:50:47;12.40;;;5.27;;
5006;SDS011;2522;50.972;11.046;2022-10-13T14:53:14;16.23;;;5.03;;
5006;SDS011;2522;50.972;11.046;2022-10-13T14:55:41;13.97;;;5.30;;
5006;SDS011;2522;50.972;11.046;2022-10-13T14:58:10;13.23;;;5.50;;
5006;SDS011;2522;50.972;11.046;2022-10-13T15:00:37;16.57;;;6.83;;
5006;SDS011;2522;50.972;11.046;2022-10-13T15:03:04;11.67;;;5.40;;
5006;SDS011;2522;50.972;11.046;2022-10-13T15:05:31;15.60;;;5.10;;
5006;SDS011;2522;50.972;11.046;2022-10-13T15:07:59;13.13;;;5.80;;
5006;SDS011;2522;50.972;11.046;2022-10-13T15:10:26;14.73;;;7.40;;
5006;SDS011;2522;50.972;11.046;2022-10-13T15:12:54;13.13;;;5.30;;
5006;SDS011;2522;50.972;11.046;2022-10-13T15:15:21;15.03;;;5.83;;
5006;SDS011;2522;50.972;11.046;2022-10-13T15:17:48;18.13;;;6.63;;
5006;SDS011;2522;50.972;11.046;2022-10-13T15:20:15;20.00;;;6.60;;
5006;SDS011;2522;50.972;11.046;2022-10-13T15:22:42;11.40;;;5.67;;
5006;SDS011;2522;50.972;11.046;2022-10-13T15:25:10;14.33;;;6.50;;
5006;SDS011;2522;50.972;11.046;2022-10-13T15:27:37;10.30;;;5.90;;
5006;SDS011;2522;50.972;11.046;2022-10-13T15:30:05;15.50;;;5.90;;
5006;SDS011;2522;50.972;11.046;2022-10-13T15:32:33;17.07;;;7.00;;
5006;SDS011;2522;50.972;11.046;2022-10-13T15:35:00;9.93;;;5.90;;
5006;SDS011;2522;50.972;11.046;2022-10-13T15:37:27;12.53;;;6.53;;
5006;SDS011;2522;50.972;11.046;2022-10-13T15:39:54;18.40;;;7.30;;
5006;SDS011;2522;50.972;11.046;2022-10-13T15:42:23;16.50;;;6.70;;
5006;SDS011;2522;50.972;11.046;2022-10-13T15:44:50;16.40;;;7.13;;
5006;SDS011;2522;50.972;11.046;2022-10-13T15:47:17;20.90;;;6.90;;
5006;SDS011;2522;50.972;11.046;2022-10-13T15:49:44;18.33;;;6.20;;
5006;SDS011;2522;50.972;11.046;2022-10-13T15:52:10;11.80;;;6.20;;
5006;SDS011;2522;50.972;11.046;2022-10-13T15:54:37;19.57;;;6.67;;
5006;SDS011;2522;50.972;11.046;2022-10-13T15:57:05;14.57;;;7.03;;
5006;SDS011;2522;50.972;11.046;2022-10-13T15:59:33;18.47;;;6.40;;
5006;SDS011;2522;50.972;11.046;2022-10-13T16:02:00;11.63;;;5.80;;
5006;SDS011;2522;50.972;11.046;2022-10-13T16:04:27;16.00;;;6.43;;
5006;SDS011;2522;50.972;11.046;2022-10-13T16:06:54;15.23;;;7.00;;
5006;SDS011;2522;50.972;11.046;2022-10-13T16:09:20;16.53;;;7.00;;
5006;SDS011;2522;50.972;11.046;2022-10-13T16:11:47;18.43;;;6.50;;
5006;SDS011;2522;50.972;11.046;2022-10-13T16:14:14;21.43;;;7.30;;
5006;SDS011;2522;50.972;11.046;2022-10-13T16:16:42;13.47;;;6.10;;
5006;SDS011;2522;50.972;11.046;2022-10-13T16:19:09;12.87;;;6.63;;
5006;SDS011;2522;50.972;11.046;2022-10-13T16:21:36;14.70;;;6.27;;
5006;SDS011;2522;50.972;11.046;2022-10-13T16:24:03;19.90;;;8.60;;
5006;SDS011;2522;50.972;11.046;2022-10-13T16:26:31;14.27;;;8.50;;
5006;SDS011;2522;50.972;11.046;2022-10-13T16:28:58;12.97;;;6.80;;
5006;SDS011;2522;50.972;11.046;2022-10-13T16:31:25;13.73;;;7.00;;
5006;SDS011;2522;50.972;11.046;2022-10-13T16:33:53;12.63;;;7.63;;
5006;SDS011;2522;50.972;11.046;2022-10-13T16:36:20;23.13;;;7.43;;
5006;SDS011;2522;50.972;11.046;2022-10-13T16:38:50;10.83;;;6.30;;
5006;SDS011;2522;50.972;11.046;2022-10-13T16:41:18;14.13;;;6.53;;
5006;SDS011;2522;50.972;11.046;2022-10-13T16:43:45;16.70;;;7.30;;
5006;SDS011;2522;50.972;11.046;2022-10-13T16:46:13;14.97;;;7.47;;
5006;SDS011;2522;50.972;11.046;2022-10-13T16:48:41;26.00;;;8.87;;
5006;SDS011;2522;50.972;11.046;2022-10-13T16:51:12;19.00;;;7.73;;
5006;SDS011;2522;50.972;11.046;2022-10-13T16:53:40;16.13;;;8.70;;
5006;SDS011;2522;50.972;11.046;2022-10-13T16:56:08;17.60;;;7.67;;
5006;SDS011;2522;50.972;11.046;2022-10-13T16:58:34;18.93;;;8.70;;
5006;SDS011;2522;50.972;11.046;2022-10-13T17:01:02;15.53;;;7.43;;
5006;SDS011;2522;50.972;11.046;2022-10-13T17:03:32;12.53;;;6.77;;
5006;SDS011;2522;50.972;11.046;2022-10-13T17:05:59;19.60;;;7.70;;
5006;SDS011;2522;50.972;11.046;2022-10-13T17:08:27;24.77;;;9.07;;
5006;SDS011;2522;50.972;11.046;2022-10-13T17:10:55;17.80;;;7.30;;
5006;SDS011;2522;50.972;11.046;2022-10-13T17:13:22;20.17;;;10.23;;
5006;SDS011;2522;50.972;11.046;2022-10-13T17:15:49;22.77;;;9.80;;
5006;SDS011;2522;50.972;11.046;2022-10-13T17:18:17;15.67;;;8.40;;
5006;SDS011;2522;50.972;11.046;2022-10-13T17:20:53;20.60;;;9.70;;
5006;SDS011;2522;50.972;11.046;2022-10-13T17:23:21;15.43;;;7.80;;
5006;SDS011;2522;50.972;11.046;2022-10-13T17:25:50;17.70;;;8.63;;
5006;SDS011;2522;50.972;11.046;2022-10-13T17:28:18;26.80;;;10.00;;
5006;SDS011;2522;50.972;11.046;2022-10-13T17:30:54;20.93;;;9.90;;
5006;SDS011;2522;50.972;11.046;2022-10-13T17:33:22;19.37;;;9.77;;
5006;SDS011;2522;50.972;11.046;2022-10-13T17:35:49;20.90;;;10.30;;
5006;SDS011;2522;50.972;11.046;2022-10-13T17:38:16;24.77;;;9.70;;
5006;SDS011;2522;50.972;11.046;2022-10-13T17:40:46;19.87;;;9.53;;
5006;SDS011;2522;50.972;11.046;2022-10-13T17:43:14;19.67;;;9.73;;
5006;SDS011;2522;50.972;11.046;2022-10-13T17:45:41;21.20;;;9.90;;
5006;SDS011;2522;50.972;11.046;2022-10-13T17:48:08;17.43;;;9.73;;
5006;SDS011;2522;50.972;11.046;2022-10-13T17:50:36;17.60;;;9.47;;
5006;SDS011;2522;50.972;11.046;2022-10-13T17:53:03;19.67;;;10.47;;
5006;SDS011;2522;50.972;11.046;2022-10-13T17:55:29;21.70;;;11.27;;
5006;SDS011;2522;50.972;11.046;2022-10-13T17:57:56;31.27;;;11.37;;
5006;SDS011;2522;50.972;11.046;2022-10-13T18:00:25;15.13;;;8.80;;
5006;SDS011;2522;50.972;11.046;2022-10-13T18:02:53;20.77;;;9.63;;
5006;SDS011;2522;50.972;11.046;2022-10-13T18:05:20;23.87;;;8.87;;
5006;SDS011;2522;50.972;11.046;2022-10-13T18:07:47;15.90;;;9.10;;
5006;SDS011;2522;50.972;11.046;2022-10-13T18:10:14;23.53;;;9.47;;
5006;SDS011;2522;50.972;11.046;2022-10-13T18:12:42;21.10;;;8.60;;
5006;SDS011;2522;50.972;11.046;2022-10-13T18:15:09;23.90;;;8.93;;
5006;SDS011;2522;50.972;11.046;2022-10-13T18:17:37;22.03;;;9.00;;
5006;SDS011;2522;50.972;11.046;2022-10-13T18:20:05;17.20;;;7.87;;
5006;SDS011;2522;50.972;11.046;2022-10-13T18:22:32;15.30;;;7.50;;
5006;SDS011;2522;50.972;11.046;2022-10-13T18:24:59;17.03;;;8.50;;
5006;SDS011;2522;50.972;11.046;2022-10-13T18:27:26;20.73;;;8.60;;
5006;SDS011;2522;50.972;11.046;2022-10-13T18:29:53;16.70;;;7.57;;
5006;SDS011;2522;50.972;11.046;2022-10-13T18:32:20;15.40;;;7.87;;
5006;SDS011;2522;50.972;11.046;2022-10-13T18:34:48;20.77;;;9.27;;
5006;SDS011;2522;50.972;11.046;2022-10-13T18:37:15;15.60;;;7.00;;
5006;SDS011;2522;50.972;11.046;2022-10-13T18:39:42;13.53;;;7.20;;
5006;SDS011;2522;50.972;11.046;2022-10-13T18:42:09;15.57;;;7.97;;